sensor_id;sensor_type;location;lat;lon;timestamp;temperature;humidity
57264;DHT22;43113;53.124;6.092;2022-08-01T00:00:13;18.30;99.90
57264;DHT22;43113;53.124;6.092;2022-08-01T00:02:39;18.30;99.90
57264;DHT22;43113;53.124;6.092;2022-08-01T00:05:07;18.30;99.90
57264;DHT22;43113;53.124;6.092;2022-08-01T00:07:36;18.30;99.90
57264;DHT22;43113;53.124;6.092;2022-08-01T00:10:08;18.30;99.90
57264;DHT22;43113;53.124;6.092;2022-08-01T00:12:34;18.20;99.90
57264;DHT22;43113;53.124;6.092;2022-08-01T00:15:00;18.30;99.90
57264;DHT22;43113;53.124;6.092;2022-08-01T00:17:26;18.20;99.90
57264;DHT22;43113;53.124;6.092;2022-08-01T00:19:51;18.20;99.90
57264;DHT22;43113;53.124;6.092;2022-08-01T00:22:17;18.30;99.90
57264;DHT22;43113;53.124;6.092;2022-08-01T00:24:43;18.20;99.90
57264;DHT22;43113;53.124;6.092;2022-08-01T00:27:09;18.20;99.90
57264;DHT22;43113;53.124;6.092;2022-08-01T00:29:34;18.20;99.90
57264;DHT22;43113;53.124;6.092;2022-08-01T00:32:00;18.20;99.90
57264;DHT22;43113;53.124;6.092;2022-08-01T00:34:26;18.20;99.90
57264;DHT22;43113;53.124;6.092;2022-08-01T00:36:51;18.20;99.90
57264;DHT22;43113;53.124;6.092;2022-08-01T00:39:17;18.20;99.90
57264;DHT22;43113;53.124;6.092;2022-08-01T00:41:42;18.20;99.90
57264;DHT22;43113;53.124;6.092;2022-08-01T00:44:08;18.20;99.90
57264;DHT22;43113;53.124;6.092;2022-08-01T00:46:34;18.20;99.90
57264;DHT22;43113;53.124;6.092;2022-08-01T00:49:00;18.10;99.90
57264;DHT22;43113;53.124;6.092;2022-08-01T00:51:27;18.10;99.90
57264;DHT22;43113;53.124;6.092;2022-08-01T00:53:53;18.10;99.90
57264;DHT22;43113;53.124;6.092;2022-08-01T00:56:21;18.00;99.90
57264;DHT22;43113;53.124;6.092;2022-08-01T00:58:47;18.10;99.90
57264;DHT22;43113;53.124;6.092;2022-08-01T01:01:13;18.10;99.90
57264;DHT22;43113;53.124;6.092;2022-08-01T01:03:39;18.00;99.90
57264;DHT22;43113;53.124;6.092;2022-08-01T01:11:48;18.00;99.90
57264;DHT22;43113;53.124;6.092;2022-08-01T01:14:50;17.90;99.90
57264;DHT22;43113;53.124;6.092;2022-08-01T01:17:24;18.00;99.90
57264;DHT22;43113;53.124;6.092;2022-08-01T01:19:54;17.90;99.90
57264;DHT22;43113;53.124;6.092;2022-08-01T01:25:39;17.90;99.90
57264;DHT22;43113;53.124;6.092;2022-08-01T01:31:08;17.80;99.90
57264;DHT22;43113;53.124;6.092;2022-08-01T01:33:37;17.80;99.90
57264;DHT22;43113;53.124;6.092;2022-08-01T01:36:08;17.80;99.90
57264;DHT22;43113;53.124;6.092;2022-08-01T01:38:39;17.70;99.90
57264;DHT22;43113;53.124;6.092;2022-08-01T01:41:09;17.70;99.90
57264;DHT22;43113;53.124;6.092;2022-08-01T01:43:36;17.70;99.90
57264;DHT22;43113;53.124;6.092;2022-08-01T01:46:03;17.70;99.90
57264;DHT22;43113;53.124;6.092;2022-08-01T01:48:31;17.70;99.90
57264;DHT22;43113;53.124;6.092;2022-08-01T01:50:58;17.60;99.90
57264;DHT22;43113;53.124;6.092;2022-08-01T01:53:27;17.60;99.90
57264;DHT22;43113;53.124;6.092;2022-08-01T01:55:55;17.60;99.90
57264;DHT22;43113;53.124;6.092;2022-08-01T01:58:24;17.60;99.90
57264;DHT22;43113;53.124;6.092;2022-08-01T02:00:52;17.60;99.90
57264;DHT22;43113;53.124;6.092;2022-08-01T02:03:21;17.60;99.90
57264;DHT22;43113;53.124;6.092;2022-08-01T02:05:51;17.50;99.90
57264;DHT22;43113;53.124;6.092;2022-08-01T02:08:18;17.50;99.90
57264;DHT22;43113;53.124;6.092;2022-08-01T02:10:46;17.50;99.90
57264;DHT22;43113;53.124;6.092;2022-08-01T02:13:33;17.50;99.90
57264;DHT22;43113;53.124;6.092;2022-08-01T02:16:01;17.50;99.90
57264;DHT22;43113;53.124;6.092;2022-08-01T02:18:27;17.50;99.90
57264;DHT22;43113;53.124;6.092;2022-08-01T02:20:54;17.50;99.90
57264;DHT22;43113;53.124;6.092;2022-08-01T02:23:23;17.40;99.90
57264;DHT22;43113;53.124;6.092;2022-08-01T02:25:52;17.40;99.90
57264;DHT22;43113;53.124;6.092;2022-08-01T02:28:28;17.50;99.90
57264;DHT22;43113;53.124;6.092;2022-08-01T02:31:02;17.40;99.90
57264;DHT22;43113;53.124;6.092;2022-08-01T02:33:42;17.40;99.90
57264;DHT22;43113;53.124;6.092;2022-08-01T02:36:08;17.40;99.90
57264;DHT22;43113;53.124;6.092;2022-08-01T02:38:39;17.40;99.90
57264;DHT22;43113;53.124;6.092;2022-08-01T02:41:09;17.40;99.90
57264;DHT22;43113;53.124;6.092;2022-08-01T02:43:42;17.40;99.90
57264;DHT22;43113;53.124;6.092;2022-08-01T02:46:12;17.30;99.90
57264;DHT22;43113;53.124;6.092;2022-08-01T02:48:42;17.30;99.90
57264;DHT22;43113;53.124;6.092;2022-08-01T02:51:10;17.30;99.90
57264;DHT22;43113;53.124;6.092;2022-08-01T02:53:39;17.30;99.90
57264;DHT22;43113;53.124;6.092;2022-08-01T02:56:08;17.30;99.90
57264;DHT22;43113;53.124;6.092;2022-08-01T02:58:36;17.20;99.90
57264;DHT22;43113;53.124;6.092;2022-08-01T03:01:05;17.20;99.90
57264;DHT22;43113;53.124;6.092;2022-08-01T03:03:31;17.20;99.90
57264;DHT22;43113;53.124;6.092;2022-08-01T03:05:58;17.20;99.90
57264;DHT22;43113;53.124;6.092;2022-08-01T03:08:25;17.20;99.90
57264;DHT22;43113;53.124;6.092;2022-08-01T03:10:52;17.10;99.90
57264;DHT22;43113;53.124;6.092;2022-08-01T03:13:20;17.10;99.90
57264;DHT22;43113;53.124;6.092;2022-08-01T03:15:48;17.10;99.90
57264;DHT22;43113;53.124;6.092;2022-08-01T03:18:15;17.10;99.90
57264;DHT22;43113;53.124;6.092;2022-08-01T03:20:41;17.10;99.90
57264;DHT22;43113;53.124;6.092;2022-08-01T03:23:10;17.10;99.90
57264;DHT22;43113;53.124;6.092;2022-08-01T03:25:39;17.00;99.90
57264;DHT22;43113;53.124;6.092;2022-08-01T03:28:07;17.00;99.90
57264;DHT22;43113;53.124;6.092;2022-08-01T03:30:36;17.00;99.90
57264;DHT22;43113;53.124;6.092;2022-08-01T03:33:02;17.10;99.90
57264;DHT22;43113;53.124;6.092;2022-08-01T03:35:33;17.00;99.90
57264;DHT22;43113;53.124;6.092;2022-08-01T03:38:00;17.00;99.90
57264;DHT22;43113;53.124;6.092;2022-08-01T03:40:43;17.00;99.90
57264;DHT22;43113;53.124;6.092;2022-08-01T03:43:18;17.00;99.90
57264;DHT22;43113;53.124;6.092;2022-08-01T03:45:51;17.00;99.90
57264;DHT22;43113;53.124;6.092;2022-08-01T03:48:18;17.00;99.90
57264;DHT22;43113;53.124;6.092;2022-08-01T03:50:50;17.00;99.90
57264;DHT22;43113;53.124;6.092;2022-08-01T03:53:22;16.90;99.90
57264;DHT22;43113;53.124;6.092;2022-08-01T03:55:48;16.90;99.90
57264;DHT22;43113;53.124;6.092;2022-08-01T03:58:15;16.90;99.90
57264;DHT22;43113;53.124;6.092;2022-08-01T04:00:41;16.90;99.90
57264;DHT22;43113;53.124;6.092;2022-08-01T04:03:08;16.90;99.90
57264;DHT22;43113;53.124;6.092;2022-08-01T04:05:34;16.90;99.90
57264;DHT22;43113;53.124;6.092;2022-08-01T04:08:01;16.90;99.90
57264;DHT22;43113;53.124;6.092;2022-08-01T04:10:28;16.90;99.90
57264;DHT22;43113;53.124;6.092;2022-08-01T04:12:54;16.90;99.90
57264;DHT22;43113;53.124;6.092;2022-08-01T04:15:20;16.80;99.90
57264;DHT22;43113;53.124;6.092;2022-08-01T04:17:46;16.80;99.90
57264;DHT22;43113;53.124;6.092;2022-08-01T04:20:12;16.80;99.90
57264;DHT22;43113;53.124;6.092;2022-08-01T04:22:39;16.70;99.90
57264;DHT22;43113;53.124;6.092;2022-08-01T04:25:26;16.70;99.90
57264;DHT22;43113;53.124;6.092;2022-08-01T04:27:53;16.70;99.90
57264;DHT22;43113;53.124;6.092;2022-08-01T04:30:24;16.70;99.90
57264;DHT22;43113;53.124;6.092;2022-08-01T04:32:52;16.70;99.90
57264;DHT22;43113;53.124;6.092;2022-08-01T04:35:20;16.70;99.90
57264;DHT22;43113;53.124;6.092;2022-08-01T04:37:47;16.70;99.90
57264;DHT22;43113;53.124;6.092;2022-08-01T04:40:14;16.70;99.90
57264;DHT22;43113;53.124;6.092;2022-08-01T04:42:41;16.60;99.90
57264;DHT22;43113;53.124;6.092;2022-08-01T04:45:08;16.60;99.90
57264;DHT22;43113;53.124;6.092;2022-08-01T04:47:35;16.60;99.90
57264;DHT22;43113;53.124;6.092;2022-08-01T04:50:07;16.60;99.90
57264;DHT22;43113;53.124;6.092;2022-08-01T04:52:37;16.60;99.90
57264;DHT22;43113;53.124;6.092;2022-08-01T04:55:04;16.70;99.90
57264;DHT22;43113;53.124;6.092;2022-08-01T04:57:34;16.60;99.90
57264;DHT22;43113;53.124;6.092;2022-08-01T05:00:02;16.60;99.90
57264;DHT22;43113;53.124;6.092;2022-08-01T05:02:28;16.60;99.90
57264;DHT22;43113;53.124;6.092;2022-08-01T05:04:55;16.60;99.90
57264;DHT22;43113;53.124;6.092;2022-08-01T05:07:21;16.60;99.90
57264;DHT22;43113;53.124;6.092;2022-08-01T05:09:47;16.60;99.90
57264;DHT22;43113;53.124;6.092;2022-08-01T05:12:13;16.60;99.90
57264;DHT22;43113;53.124;6.092;2022-08-01T05:14:39;16.70;99.90
57264;DHT22;43113;53.124;6.092;2022-08-01T05:17:06;16.60;99.90
57264;DHT22;43113;53.124;6.092;2022-08-01T05:19:37;16.60;99.90
57264;DHT22;43113;53.124;6.092;2022-08-01T05:22:05;16.60;99.90
57264;DHT22;43113;53.124;6.092;2022-08-01T05:24:31;16.60;99.90
57264;DHT22;43113;53.124;6.092;2022-08-01T05:26:58;16.60;99.90
57264;DHT22;43113;53.124;6.092;2022-08-01T05:29:24;16.60;99.90
57264;DHT22;43113;53.124;6.092;2022-08-01T05:31:50;16.60;99.90
57264;DHT22;43113;53.124;6.092;2022-08-01T05:34:16;16.70;99.90
57264;DHT22;43113;53.124;6.092;2022-08-01T05:36:42;16.60;99.90
57264;DHT22;43113;53.124;6.092;2022-08-01T05:39:08;16.60;99.90
57264;DHT22;43113;53.124;6.092;2022-08-01T05:41:35;16.60;99.90
57264;DHT22;43113;53.124;6.092;2022-08-01T05:44:02;16.70;99.90
57264;DHT22;43113;53.124;6.092;2022-08-01T05:46:27;16.70;99.90
57264;DHT22;43113;53.124;6.092;2022-08-01T05:48:53;16.70;99.90
57264;DHT22;43113;53.124;6.092;2022-08-01T05:51:19;16.80;99.90
57264;DHT22;43113;53.124;6.092;2022-08-01T05:53:45;16.80;99.90
57264;DHT22;43113;53.124;6.092;2022-08-01T05:56:10;16.70;99.90
57264;DHT22;43113;53.124;6.092;2022-08-01T05:58:36;16.80;99.90
57264;DHT22;43113;53.124;6.092;2022-08-01T06:01:02;16.90;99.90
57264;DHT22;43113;53.124;6.092;2022-08-01T06:03:27;16.90;99.90
57264;DHT22;43113;53.124;6.092;2022-08-01T06:05:56;16.90;99.90
57264;DHT22;43113;53.124;6.092;2022-08-01T06:08:22;16.90;99.90
57264;DHT22;43113;53.124;6.092;2022-08-01T06:10:48;17.00;99.90
57264;DHT22;43113;53.124;6.092;2022-08-01T06:13:14;17.00;99.90
57264;DHT22;43113;53.124;6.092;2022-08-01T06:15:40;17.00;99.90
57264;DHT22;43113;53.124;6.092;2022-08-01T06:18:06;17.10;99.90
57264;DHT22;43113;53.124;6.092;2022-08-01T06:20:31;17.10;99.90
57264;DHT22;43113;53.124;6.092;2022-08-01T06:22:57;17.20;99.90
57264;DHT22;43113;53.124;6.092;2022-08-01T06:25:23;17.30;99.90
57264;DHT22;43113;53.124;6.092;2022-08-01T06:27:49;17.40;99.90
57264;DHT22;43113;53.124;6.092;2022-08-01T06:30:15;17.60;99.90
57264;DHT22;43113;53.124;6.092;2022-08-01T06:32:41;17.70;99.90
57264;DHT22;43113;53.124;6.092;2022-08-01T06:35:07;17.90;99.90
57264;DHT22;43113;53.124;6.092;2022-08-01T06:37:33;18.10;99.90
57264;DHT22;43113;53.124;6.092;2022-08-01T06:40:07;18.20;99.90
57264;DHT22;43113;53.124;6.092;2022-08-01T06:42:34;18.40;99.90
57264;DHT22;43113;53.124;6.092;2022-08-01T06:45:08;18.60;99.90
57264;DHT22;43113;53.124;6.092;2022-08-01T06:47:35;18.80;99.90
57264;DHT22;43113;53.124;6.092;2022-08-01T06:50:02;19.10;99.90
57264;DHT22;43113;53.124;6.092;2022-08-01T06:52:28;19.40;99.90
57264;DHT22;43113;53.124;6.092;2022-08-01T06:54:54;20.10;99.90
57264;DHT22;43113;53.124;6.092;2022-08-01T06:57:20;20.40;99.90
57264;DHT22;43113;53.124;6.092;2022-08-01T06:59:45;20.40;99.90
57264;DHT22;43113;53.124;6.092;2022-08-01T07:02:11;20.20;99.90
57264;DHT22;43113;53.124;6.092;2022-08-01T07:04:37;20.10;99.90
57264;DHT22;43113;53.124;6.092;2022-08-01T07:07:03;20.10;99.90
57264;DHT22;43113;53.124;6.092;2022-08-01T07:09:28;20.10;99.90
57264;DHT22;43113;53.124;6.092;2022-08-01T07:11:54;20.10;99.90
57264;DHT22;43113;53.124;6.092;2022-08-01T07:14:21;20.30;99.90
57264;DHT22;43113;53.124;6.092;2022-08-01T07:16:47;21.00;99.90
57264;DHT22;43113;53.124;6.092;2022-08-01T07:19:13;21.60;99.90
57264;DHT22;43113;53.124;6.092;2022-08-01T07:21:39;22.50;99.90
57264;DHT22;43113;53.124;6.092;2022-08-01T07:24:10;23.70;99.90
57264;DHT22;43113;53.124;6.092;2022-08-01T07:26:36;24.30;99.90
57264;DHT22;43113;53.124;6.092;2022-08-01T07:29:02;24.30;99.90
57264;DHT22;43113;53.124;6.092;2022-08-01T07:31:28;24.20;99.90
57264;DHT22;43113;53.124;6.092;2022-08-01T07:33:54;24.40;99.90
57264;DHT22;43113;53.124;6.092;2022-08-01T07:36:20;25.50;99.90
57264;DHT22;43113;53.124;6.092;2022-08-01T07:38:46;26.60;99.90
57264;DHT22;43113;53.124;6.092;2022-08-01T07:41:12;27.60;98.30
57264;DHT22;43113;53.124;6.092;2022-08-01T07:43:37;28.00;95.70
57264;DHT22;43113;53.124;6.092;2022-08-01T07:46:04;29.00;97.60
57264;DHT22;43113;53.124;6.092;2022-08-01T07:48:30;29.30;95.20
57264;DHT22;43113;53.124;6.092;2022-08-01T07:50:55;30.00;92.90
57264;DHT22;43113;53.124;6.092;2022-08-01T07:53:21;30.20;91.90
57264;DHT22;43113;53.124;6.092;2022-08-01T07:55:48;30.90;91.40
57264;DHT22;43113;53.124;6.092;2022-08-01T07:58:14;31.10;90.80
57264;DHT22;43113;53.124;6.092;2022-08-01T08:00:40;31.30;90.00
57264;DHT22;43113;53.124;6.092;2022-08-01T08:03:06;31.50;87.60
57264;DHT22;43113;53.124;6.092;2022-08-01T08:05:31;31.90;88.00
57264;DHT22;43113;53.124;6.092;2022-08-01T08:08:09;31.90;86.30
57264;DHT22;43113;53.124;6.092;2022-08-01T08:10:39;32.10;87.00
57264;DHT22;43113;53.124;6.092;2022-08-01T08:13:05;32.20;84.70
57264;DHT22;43113;53.124;6.092;2022-08-01T08:15:30;32.30;84.70
57264;DHT22;43113;53.124;6.092;2022-08-01T08:17:56;32.20;82.20
57264;DHT22;43113;53.124;6.092;2022-08-01T08:20:22;31.60;81.10
57264;DHT22;43113;53.124;6.092;2022-08-01T08:22:51;31.40;84.60
57264;DHT22;43113;53.124;6.092;2022-08-01T08:25:17;31.70;81.80
57264;DHT22;43113;53.124;6.092;2022-08-01T08:27:45;31.70;82.20
57264;DHT22;43113;53.124;6.092;2022-08-01T08:30:11;31.70;83.60
57264;DHT22;43113;53.124;6.092;2022-08-01T08:32:37;31.30;81.50
57264;DHT22;43113;53.124;6.092;2022-08-01T08:35:04;31.10;82.80
57264;DHT22;43113;53.124;6.092;2022-08-01T08:37:30;31.10;83.30
57264;DHT22;43113;53.124;6.092;2022-08-01T08:39:56;31.20;84.40
57264;DHT22;43113;53.124;6.092;2022-08-01T08:42:22;31.50;81.70
57264;DHT22;43113;53.124;6.092;2022-08-01T08:44:48;31.80;81.30
57264;DHT22;43113;53.124;6.092;2022-08-01T08:47:14;32.10;82.80
57264;DHT22;43113;53.124;6.092;2022-08-01T08:49:43;31.60;80.60
57264;DHT22;43113;53.124;6.092;2022-08-01T08:52:10;30.20;80.40
57264;DHT22;43113;53.124;6.092;2022-08-01T08:54:38;29.40;83.20
57264;DHT22;43113;53.124;6.092;2022-08-01T08:57:06;29.10;84.00
57264;DHT22;43113;53.124;6.092;2022-08-01T08:59:32;28.80;84.50
57264;DHT22;43113;53.124;6.092;2022-08-01T09:01:58;28.60;84.50
57264;DHT22;43113;53.124;6.092;2022-08-01T09:04:25;27.90;83.60
57264;DHT22;43113;53.124;6.092;2022-08-01T09:06:51;27.90;86.30
57264;DHT22;43113;53.124;6.092;2022-08-01T09:09:17;28.30;83.00
57264;DHT22;43113;53.124;6.092;2022-08-01T09:11:43;28.80;82.60
57264;DHT22;43113;53.124;6.092;2022-08-01T09:14:13;28.90;82.70
57264;DHT22;43113;53.124;6.092;2022-08-01T09:16:42;28.70;83.70
57264;DHT22;43113;53.124;6.092;2022-08-01T09:21:36;28.80;83.40
57264;DHT22;43113;53.124;6.092;2022-08-01T09:24:02;28.20;83.30
57264;DHT22;43113;53.124;6.092;2022-08-01T09:26:35;27.80;81.60
57264;DHT22;43113;53.124;6.092;2022-08-01T09:29:07;27.80;84.40
57264;DHT22;43113;53.124;6.092;2022-08-01T09:31:44;28.50;86.20
57264;DHT22;43113;53.124;6.092;2022-08-01T09:34:10;29.50;83.50
57264;DHT22;43113;53.124;6.092;2022-08-01T09:36:55;29.90;82.10
57264;DHT22;43113;53.124;6.092;2022-08-01T09:39:33;29.30;78.60
57264;DHT22;43113;53.124;6.092;2022-08-01T09:42:19;28.70;79.50
57264;DHT22;43113;53.124;6.092;2022-08-01T09:44:45;28.70;82.60
57264;DHT22;43113;53.124;6.092;2022-08-01T09:47:12;28.60;82.00
57264;DHT22;43113;53.124;6.092;2022-08-01T09:49:40;28.60;80.00
57264;DHT22;43113;53.124;6.092;2022-08-01T09:52:13;29.10;82.30
57264;DHT22;43113;53.124;6.092;2022-08-01T09:54:40;29.10;80.50
57264;DHT22;43113;53.124;6.092;2022-08-01T09:57:14;28.70;81.40
57264;DHT22;43113;53.124;6.092;2022-08-01T09:59:43;28.60;82.70
57264;DHT22;43113;53.124;6.092;2022-08-01T10:02:11;29.20;83.00
57264;DHT22;43113;53.124;6.092;2022-08-01T10:04:50;29.70;79.10
57264;DHT22;43113;53.124;6.092;2022-08-01T10:07:18;29.40;78.80
57264;DHT22;43113;53.124;6.092;2022-08-01T10:09:45;29.50;83.00
57264;DHT22;43113;53.124;6.092;2022-08-01T10:12:13;30.30;78.30
57264;DHT22;43113;53.124;6.092;2022-08-01T10:14:40;31.20;77.90
57264;DHT22;43113;53.124;6.092;2022-08-01T10:17:08;31.40;76.80
57264;DHT22;43113;53.124;6.092;2022-08-01T10:19:35;31.50;75.70
57264;DHT22;43113;53.124;6.092;2022-08-01T10:22:06;31.30;74.50
57264;DHT22;43113;53.124;6.092;2022-08-01T10:24:37;31.00;75.20
57264;DHT22;43113;53.124;6.092;2022-08-01T10:27:06;31.20;76.40
57264;DHT22;43113;53.124;6.092;2022-08-01T10:29:56;31.60;73.60
57264;DHT22;43113;53.124;6.092;2022-08-01T10:32:22;31.70;75.60
57264;DHT22;43113;53.124;6.092;2022-08-01T10:34:49;31.50;74.70
57264;DHT22;43113;53.124;6.092;2022-08-01T10:37:15;30.70;76.30
57264;DHT22;43113;53.124;6.092;2022-08-01T10:39:43;29.90;77.00
57264;DHT22;43113;53.124;6.092;2022-08-01T10:42:10;30.10;75.90
57264;DHT22;43113;53.124;6.092;2022-08-01T10:44:37;30.20;75.90
57264;DHT22;43113;53.124;6.092;2022-08-01T10:47:09;30.40;75.90
57264;DHT22;43113;53.124;6.092;2022-08-01T10:52:25;30.90;74.70
57264;DHT22;43113;53.124;6.092;2022-08-01T10:55:03;31.10;75.70
57264;DHT22;43113;53.124;6.092;2022-08-01T10:57:45;31.40;76.40
57264;DHT22;43113;53.124;6.092;2022-08-01T11:00:19;31.00;74.00
57264;DHT22;43113;53.124;6.092;2022-08-01T11:03:11;31.30;74.50
57264;DHT22;43113;53.124;6.092;2022-08-01T11:05:38;31.00;73.90
57264;DHT22;43113;53.124;6.092;2022-08-01T11:08:20;31.00;75.20
57264;DHT22;43113;53.124;6.092;2022-08-01T11:10:47;30.40;75.50
57264;DHT22;43113;53.124;6.092;2022-08-01T11:13:13;29.70;76.10
57264;DHT22;43113;53.124;6.092;2022-08-01T11:15:40;29.00;77.20
57264;DHT22;43113;53.124;6.092;2022-08-01T11:20:58;29.20;78.00
57264;DHT22;43113;53.124;6.092;2022-08-01T11:23:30;29.70;76.50
57264;DHT22;43113;53.124;6.092;2022-08-01T11:26:12;29.80;77.40
57264;DHT22;43113;53.124;6.092;2022-08-01T11:28:38;29.70;76.60
57264;DHT22;43113;53.124;6.092;2022-08-01T11:38:45;29.30;74.50
57264;DHT22;43113;53.124;6.092;2022-08-01T11:41:26;29.50;74.30
57264;DHT22;43113;53.124;6.092;2022-08-01T11:43:58;29.40;72.50
57264;DHT22;43113;53.124;6.092;2022-08-01T11:52:06;29.00;76.90
57264;DHT22;43113;53.124;6.092;2022-08-01T11:57:05;28.70;74.30
57264;DHT22;43113;53.124;6.092;2022-08-01T11:59:43;28.40;76.00
57264;DHT22;43113;53.124;6.092;2022-08-01T12:02:17;28.30;74.30
57264;DHT22;43113;53.124;6.092;2022-08-01T12:07:19;28.10;75.70
57264;DHT22;43113;53.124;6.092;2022-08-01T12:09:46;28.20;76.50
57264;DHT22;43113;53.124;6.092;2022-08-01T12:12:15;28.20;76.00
57264;DHT22;43113;53.124;6.092;2022-08-01T12:14:42;28.20;75.90
57264;DHT22;43113;53.124;6.092;2022-08-01T12:17:08;28.20;77.00
57264;DHT22;43113;53.124;6.092;2022-08-01T12:19:34;28.10;76.90
57264;DHT22;43113;53.124;6.092;2022-08-01T12:22:12;27.70;75.20
57264;DHT22;43113;53.124;6.092;2022-08-01T12:24:41;27.70;74.60
57264;DHT22;43113;53.124;6.092;2022-08-01T12:27:09;27.50;77.10
57264;DHT22;43113;53.124;6.092;2022-08-01T12:29:42;27.40;75.20
57264;DHT22;43113;53.124;6.092;2022-08-01T12:32:29;27.20;76.60
57264;DHT22;43113;53.124;6.092;2022-08-01T12:35:10;27.10;76.20
57264;DHT22;43113;53.124;6.092;2022-08-01T12:37:37;27.10;78.10
57264;DHT22;43113;53.124;6.092;2022-08-01T12:40:22;27.10;78.60
57264;DHT22;43113;53.124;6.092;2022-08-01T12:42:54;27.30;78.10
57264;DHT22;43113;53.124;6.092;2022-08-01T12:45:25;27.20;78.20
57264;DHT22;43113;53.124;6.092;2022-08-01T12:47:55;27.20;76.30
57264;DHT22;43113;53.124;6.092;2022-08-01T12:50:24;27.00;74.00
57264;DHT22;43113;53.124;6.092;2022-08-01T12:52:51;26.60;78.40
57264;DHT22;43113;53.124;6.092;2022-08-01T12:55:19;26.40;77.80
57264;DHT22;43113;53.124;6.092;2022-08-01T12:57:47;26.30;78.40
57264;DHT22;43113;53.124;6.092;2022-08-01T13:00:23;26.40;78.90
57264;DHT22;43113;53.124;6.092;2022-08-01T13:03:06;26.40;78.00
57264;DHT22;43113;53.124;6.092;2022-08-01T13:05:42;26.60;77.90
57264;DHT22;43113;53.124;6.092;2022-08-01T13:08:16;26.20;75.00
57264;DHT22;43113;53.124;6.092;2022-08-01T13:10:43;26.20;77.80
57264;DHT22;43113;53.124;6.092;2022-08-01T13:13:10;26.20;78.60
57264;DHT22;43113;53.124;6.092;2022-08-01T13:15:38;26.20;75.00
57264;DHT22;43113;53.124;6.092;2022-08-01T13:18:26;26.10;78.80
57264;DHT22;43113;53.124;6.092;2022-08-01T13:21:11;26.30;77.30
57264;DHT22;43113;53.124;6.092;2022-08-01T13:23:39;26.30;77.50
57264;DHT22;43113;53.124;6.092;2022-08-01T13:26:05;26.10;81.80
57264;DHT22;43113;53.124;6.092;2022-08-01T13:28:31;26.20;78.50
57264;DHT22;43113;53.124;6.092;2022-08-01T13:31:00;26.20;79.80
57264;DHT22;43113;53.124;6.092;2022-08-01T13:33:38;26.00;81.70
57264;DHT22;43113;53.124;6.092;2022-08-01T13:36:05;26.00;80.00
57264;DHT22;43113;53.124;6.092;2022-08-01T13:38:31;25.80;81.20
57264;DHT22;43113;53.124;6.092;2022-08-01T13:41:14;25.80;78.70
57264;DHT22;43113;53.124;6.092;2022-08-01T13:43:41;25.60;79.40
57264;DHT22;43113;53.124;6.092;2022-08-01T13:46:06;25.40;79.80
57264;DHT22;43113;53.124;6.092;2022-08-01T13:48:32;25.40;80.00
57264;DHT22;43113;53.124;6.092;2022-08-01T13:50:59;25.40;81.10
57264;DHT22;43113;53.124;6.092;2022-08-01T13:53:25;25.40;79.90
57264;DHT22;43113;53.124;6.092;2022-08-01T13:55:51;25.20;77.00
57264;DHT22;43113;53.124;6.092;2022-08-01T13:58:16;25.20;80.50
57264;DHT22;43113;53.124;6.092;2022-08-01T14:00:42;25.30;81.80
57264;DHT22;43113;53.124;6.092;2022-08-01T14:03:08;25.10;79.90
57264;DHT22;43113;53.124;6.092;2022-08-01T14:05:36;24.90;79.70
57264;DHT22;43113;53.124;6.092;2022-08-01T14:08:02;24.80;82.10
57264;DHT22;43113;53.124;6.092;2022-08-01T14:10:28;24.80;80.50
57264;DHT22;43113;53.124;6.092;2022-08-01T14:12:55;24.80;81.40
57264;DHT22;43113;53.124;6.092;2022-08-01T14:15:23;24.90;80.60
57264;DHT22;43113;53.124;6.092;2022-08-01T14:17:49;25.00;79.30
57264;DHT22;43113;53.124;6.092;2022-08-01T14:20:15;24.80;78.00
57264;DHT22;43113;53.124;6.092;2022-08-01T14:22:45;24.60;81.50
57264;DHT22;43113;53.124;6.092;2022-08-01T14:25:11;24.30;81.80
57264;DHT22;43113;53.124;6.092;2022-08-01T14:27:37;24.60;82.40
57264;DHT22;43113;53.124;6.092;2022-08-01T14:30:06;25.00;82.70
57264;DHT22;43113;53.124;6.092;2022-08-01T14:32:32;25.00;80.30
57264;DHT22;43113;53.124;6.092;2022-08-01T14:34:59;25.10;80.60
57264;DHT22;43113;53.124;6.092;2022-08-01T14:37:25;25.00;80.10
57264;DHT22;43113;53.124;6.092;2022-08-01T14:39:51;24.90;80.10
57264;DHT22;43113;53.124;6.092;2022-08-01T14:42:17;24.60;79.40
57264;DHT22;43113;53.124;6.092;2022-08-01T14:44:42;24.60;81.20
57264;DHT22;43113;53.124;6.092;2022-08-01T14:47:08;24.60;81.00
57264;DHT22;43113;53.124;6.092;2022-08-01T14:49:34;24.50;84.20
57264;DHT22;43113;53.124;6.092;2022-08-01T14:51:59;24.50;83.70
57264;DHT22;43113;53.124;6.092;2022-08-01T14:54:25;24.50;82.90
57264;DHT22;43113;53.124;6.092;2022-08-01T14:56:51;24.50;83.90
57264;DHT22;43113;53.124;6.092;2022-08-01T14:59:18;24.50;82.20
57264;DHT22;43113;53.124;6.092;2022-08-01T15:01:44;24.30;80.30
57264;DHT22;43113;53.124;6.092;2022-08-01T15:04:10;24.10;81.30
57264;DHT22;43113;53.124;6.092;2022-08-01T15:06:36;23.90;81.00
57264;DHT22;43113;53.124;6.092;2022-08-01T15:09:02;23.80;82.20
57264;DHT22;43113;53.124;6.092;2022-08-01T15:11:28;23.60;80.60
57264;DHT22;43113;53.124;6.092;2022-08-01T15:13:54;23.60;80.10
57264;DHT22;43113;53.124;6.092;2022-08-01T15:16:38;23.50;82.70
57264;DHT22;43113;53.124;6.092;2022-08-01T15:19:03;23.50;80.00
57264;DHT22;43113;53.124;6.092;2022-08-01T15:21:29;23.50;81.10
57264;DHT22;43113;53.124;6.092;2022-08-01T15:23:55;23.40;82.50
57264;DHT22;43113;53.124;6.092;2022-08-01T15:26:21;23.30;80.20
57264;DHT22;43113;53.124;6.092;2022-08-01T15:28:47;23.20;79.50
57264;DHT22;43113;53.124;6.092;2022-08-01T15:31:12;23.20;81.00
57264;DHT22;43113;53.124;6.092;2022-08-01T15:33:38;23.20;81.40
57264;DHT22;43113;53.124;6.092;2022-08-01T15:36:04;23.20;81.10
57264;DHT22;43113;53.124;6.092;2022-08-01T15:38:30;23.20;80.50
57264;DHT22;43113;53.124;6.092;2022-08-01T15:40:55;23.20;81.40
57264;DHT22;43113;53.124;6.092;2022-08-01T15:43:21;23.10;81.80
57264;DHT22;43113;53.124;6.092;2022-08-01T15:45:47;22.90;81.30
57264;DHT22;43113;53.124;6.092;2022-08-01T15:48:14;22.90;83.60
57264;DHT22;43113;53.124;6.092;2022-08-01T15:50:39;22.90;82.50
57264;DHT22;43113;53.124;6.092;2022-08-01T15:53:05;22.90;84.60
57264;DHT22;43113;53.124;6.092;2022-08-01T15:55:31;22.80;84.00
57264;DHT22;43113;53.124;6.092;2022-08-01T15:57:59;22.90;83.90
57264;DHT22;43113;53.124;6.092;2022-08-01T16:00:25;22.90;83.40
57264;DHT22;43113;53.124;6.092;2022-08-01T16:02:51;22.80;83.10
57264;DHT22;43113;53.124;6.092;2022-08-01T16:05:16;22.70;84.00
57264;DHT22;43113;53.124;6.092;2022-08-01T16:07:43;22.60;86.90
57264;DHT22;43113;53.124;6.092;2022-08-01T16:10:09;22.50;86.50
57264;DHT22;43113;53.124;6.092;2022-08-01T16:12:34;22.40;84.30
57264;DHT22;43113;53.124;6.092;2022-08-01T16:15:00;22.20;86.40